sensor_id;sensor_type;location;lat;lon;timestamp;P1;durP1;ratioP1;P2;durP2;ratioP2
50393;SDS011;36308;46.312;25.288;2023-08-24T00:00:51;8.73;;;7.80;;
50393;SDS011;36308;46.312;25.288;2023-08-24T00:03:17;10.15;;;8.02;;
50393;SDS011;36308;46.312;25.288;2023-08-24T00:05:42;12.10;;;8.27;;
50393;SDS011;36308;46.312;25.288;2023-08-24T00:08:08;10.07;;;7.47;;
50393;SDS011;36308;46.312;25.288;2023-08-24T00:10:35;9.07;;;7.45;;
50393;SDS011;36308;46.312;25.288;2023-08-24T00:13:01;10.27;;;7.95;;
50393;SDS011;36308;46.312;25.288;2023-08-24T00:15:27;9.65;;;7.03;;
50393;SDS011;36308;46.312;25.288;2023-08-24T00:17:53;10.55;;;6.97;;
50393;SDS011;36308;46.312;25.288;2023-08-24T00:20:19;8.30;;;7.10;;
50393;SDS011;36308;46.312;25.288;2023-08-24T00:22:45;8.48;;;7.50;;
50393;SDS011;36308;46.312;25.288;2023-08-24T00:25:11;9.70;;;6.53;;
50393;SDS011;36308;46.312;25.288;2023-08-24T00:27:37;8.93;;;6.38;;
50393;SDS011;36308;46.312;25.288;2023-08-24T00:30:03;10.18;;;7.60;;
50393;SDS011;36308;46.312;25.288;2023-08-24T00:32:31;8.50;;;6.53;;
50393;SDS011;36308;46.312;25.288;2023-08-24T00:34:59;8.13;;;6.30;;
50393;SDS011;36308;46.312;25.288;2023-08-24T00:37:29;17.25;;;6.80;;
50393;SDS011;36308;46.312;25.288;2023-08-24T00:39:55;8.10;;;6.93;;
50393;SDS011;36308;46.312;25.288;2023-08-24T00:42:21;9.43;;;6.90;;
50393;SDS011;36308;46.312;25.288;2023-08-24T00:44:47;9.20;;;6.75;;
50393;SDS011;36308;46.312;25.288;2023-08-24T00:47:13;10.25;;;6.55;;
50393;SDS011;36308;46.312;25.288;2023-08-24T00:49:39;10.18;;;7.20;;
50393;SDS011;36308;46.312;25.288;2023-08-24T00:52:05;8.15;;;6.97;;
50393;SDS011;36308;46.312;25.288;2023-08-24T00:54:30;11.75;;;7.00;;
50393;SDS011;36308;46.312;25.288;2023-08-24T00:56:56;10.18;;;7.28;;
50393;SDS011;36308;46.312;25.288;2023-08-24T00:59:21;10.10;;;6.35;;
50393;SDS011;36308;46.312;25.288;2023-08-24T01:01:47;8.43;;;6.88;;
50393;SDS011;36308;46.312;25.288;2023-08-24T01:04:13;8.25;;;7.35;;
50393;SDS011;36308;46.312;25.288;2023-08-24T01:06:39;10.15;;;7.65;;
50393;SDS011;36308;46.312;25.288;2023-08-24T01:09:04;7.05;;;6.35;;
50393;SDS011;36308;46.312;25.288;2023-08-24T01:14:15;10.02;;;7.05;;
50393;SDS011;36308;46.312;25.288;2023-08-24T01:16:50;10.90;;;7.10;;
50393;SDS011;36308;46.312;25.288;2023-08-24T01:19:39;8.98;;;6.88;;
50393;SDS011;36308;46.312;25.288;2023-08-24T01:27:34;7.90;;;7.03;;
50393;SDS011;36308;46.312;25.288;2023-08-24T01:30:04;8.07;;;6.68;;
50393;SDS011;36308;46.312;25.288;2023-08-24T01:32:31;10.00;;;7.13;;
50393;SDS011;36308;46.312;25.288;2023-08-24T01:34:58;11.00;;;7.35;;
50393;SDS011;36308;46.312;25.288;2023-08-24T01:37:24;10.15;;;7.03;;
50393;SDS011;36308;46.312;25.288;2023-08-24T01:39:54;9.57;;;7.65;;
50393;SDS011;36308;46.312;25.288;2023-08-24T01:42:43;8.98;;;6.72;;
50393;SDS011;36308;46.312;25.288;2023-08-24T01:45:16;10.23;;;7.30;;
50393;SDS011;36308;46.312;25.288;2023-08-24T01:47:44;8.85;;;7.35;;
50393;SDS011;36308;46.312;25.288;2023-08-24T01:50:12;9.45;;;7.90;;
50393;SDS011;36308;46.312;25.288;2023-08-24T01:52:38;10.55;;;7.30;;
50393;SDS011;36308;46.312;25.288;2023-08-24T01:55:05;11.57;;;6.95;;
50393;SDS011;36308;46.312;25.288;2023-08-24T01:57:31;8.85;;;7.18;;
50393;SDS011;36308;46.312;25.288;2023-08-24T01:59:57;9.25;;;7.50;;
50393;SDS011;36308;46.312;25.288;2023-08-24T02:02:23;11.25;;;7.30;;
50393;SDS011;36308;46.312;25.288;2023-08-24T02:04:49;9.85;;;7.65;;
50393;SDS011;36308;46.312;25.288;2023-08-24T02:07:14;12.77;;;7.47;;
50393;SDS011;36308;46.312;25.288;2023-08-24T02:09:40;11.18;;;7.47;;
50393;SDS011;36308;46.312;25.288;2023-08-24T02:12:05;9.57;;;7.70;;
50393;SDS011;36308;46.312;25.288;2023-08-24T02:14:31;11.10;;;7.55;;
50393;SDS011;36308;46.312;25.288;2023-08-24T02:16:56;9.70;;;7.45;;
50393;SDS011;36308;46.312;25.288;2023-08-24T02:19:22;8.93;;;7.35;;
50393;SDS011;36308;46.312;25.288;2023-08-24T02:21:47;11.35;;;8.25;;
50393;SDS011;36308;46.312;25.288;2023-08-24T02:24:13;9.07;;;7.15;;
50393;SDS011;36308;46.312;25.288;2023-08-24T02:26:38;9.88;;;7.70;;
50393;SDS011;36308;46.312;25.288;2023-08-24T02:29:04;11.15;;;7.60;;
50393;SDS011;36308;46.312;25.288;2023-08-24T02:31:29;9.13;;;7.65;;
50393;SDS011;36308;46.312;25.288;2023-08-24T02:33:55;10.30;;;6.97;;
50393;SDS011;36308;46.312;25.288;2023-08-24T02:36:21;10.35;;;7.07;;
50393;SDS011;36308;46.312;25.288;2023-08-24T02:38:46;9.90;;;7.05;;
50393;SDS011;36308;46.312;25.288;2023-08-24T02:41:12;9.07;;;7.15;;
50393;SDS011;36308;46.312;25.288;2023-08-24T02:43:39;9.05;;;6.72;;
50393;SDS011;36308;46.312;25.288;2023-08-24T02:46:06;13.60;;;7.80;;
50393;SDS011;36308;46.312;25.288;2023-08-24T02:48:33;10.70;;;7.35;;
50393;SDS011;36308;46.312;25.288;2023-08-24T02:50:59;9.82;;;7.20;;
50393;SDS011;36308;46.312;25.288;2023-08-24T02:53:26;10.50;;;7.47;;
50393;SDS011;36308;46.312;25.288;2023-08-24T02:55:52;9.82;;;7.10;;
50393;SDS011;36308;46.312;25.288;2023-08-24T02:58:18;11.73;;;7.82;;
50393;SDS011;36308;46.312;25.288;2023-08-24T03:00:44;8.50;;;7.07;;
50393;SDS011;36308;46.312;25.288;2023-08-24T03:03:10;13.25;;;8.75;;
50393;SDS011;36308;46.312;25.288;2023-08-24T03:05:35;10.98;;;7.82;;
50393;SDS011;36308;46.312;25.288;2023-08-24T03:08:01;11.50;;;7.75;;
50393;SDS011;36308;46.312;25.288;2023-08-24T03:10:29;9.32;;;8.35;;
50393;SDS011;36308;46.312;25.288;2023-08-24T03:12:55;10.68;;;8.95;;
50393;SDS011;36308;46.312;25.288;2023-08-24T03:15:21;11.82;;;10.10;;
50393;SDS011;36308;46.312;25.288;2023-08-24T03:17:46;15.82;;;13.57;;
50393;SDS011;36308;46.312;25.288;2023-08-24T03:20:12;13.52;;;11.82;;
50393;SDS011;36308;46.312;25.288;2023-08-24T03:22:37;12.02;;;9.70;;
50393;SDS011;36308;46.312;25.288;2023-08-24T03:25:03;10.57;;;8.70;;
50393;SDS011;36308;46.312;25.288;2023-08-24T03:27:29;9.75;;;8.20;;
50393;SDS011;36308;46.312;25.288;2023-08-24T03:29:55;9.90;;;7.72;;
50393;SDS011;36308;46.312;25.288;2023-08-24T03:32:20;9.82;;;7.43;;
50393;SDS011;36308;46.312;25.288;2023-08-24T03:34:46;7.93;;;6.95;;
50393;SDS011;36308;46.312;25.288;2023-08-24T03:37:11;8.38;;;7.28;;
50393;SDS011;36308;46.312;25.288;2023-08-24T03:39:38;10.93;;;7.65;;
50393;SDS011;36308;46.312;25.288;2023-08-24T03:42:04;9.15;;;7.70;;
50393;SDS011;36308;46.312;25.288;2023-08-24T03:44:30;11.93;;;7.57;;
50393;SDS011;36308;46.312;25.288;2023-08-24T03:46:55;11.10;;;7.53;;
50393;SDS011;36308;46.312;25.288;2023-08-24T03:49:21;12.43;;;8.02;;
50393;SDS011;36308;46.312;25.288;2023-08-24T03:51:46;10.63;;;7.32;;
50393;SDS011;36308;46.312;25.288;2023-08-24T03:54:12;12.00;;;7.78;;
50393;SDS011;36308;46.312;25.288;2023-08-24T03:56:37;10.25;;;7.60;;
50393;SDS011;36308;46.312;25.288;2023-08-24T03:59:04;11.55;;;7.53;;
50393;SDS011;36308;46.312;25.288;2023-08-24T04:01:29;11.80;;;8.02;;
50393;SDS011;36308;46.312;25.288;2023-08-24T04:03:54;9.05;;;7.40;;
50393;SDS011;36308;46.312;25.288;2023-08-24T04:06:20;12.30;;;8.27;;
50393;SDS011;36308;46.312;25.288;2023-08-24T04:08:46;14.07;;;7.85;;
50393;SDS011;36308;46.312;25.288;2023-08-24T04:11:11;11.73;;;7.97;;
50393;SDS011;36308;46.312;25.288;2023-08-24T04:13:37;10.32;;;7.53;;
50393;SDS011;36308;46.312;25.288;2023-08-24T04:16:02;9.57;;;7.30;;
50393;SDS011;36308;46.312;25.288;2023-08-24T04:18:29;10.38;;;7.55;;
50393;SDS011;36308;46.312;25.288;2023-08-24T04:20:54;10.98;;;7.22;;
50393;SDS011;36308;46.312;25.288;2023-08-24T04:23:26;10.93;;;7.03;;
50393;SDS011;36308;46.312;25.288;2023-08-24T04:25:53;11.80;;;7.10;;
50393;SDS011;36308;46.312;25.288;2023-08-24T04:28:18;8.38;;;6.78;;
50393;SDS011;36308;46.312;25.288;2023-08-24T04:30:51;11.07;;;7.13;;
50393;SDS011;36308;46.312;25.288;2023-08-24T04:33:23;12.50;;;7.72;;
50393;SDS011;36308;46.312;25.288;2023-08-24T04:35:49;11.15;;;7.70;;
50393;SDS011;36308;46.312;25.288;2023-08-24T04:38:18;9.93;;;6.78;;
50393;SDS011;36308;46.312;25.288;2023-08-24T04:40:48;14.38;;;7.85;;
50393;SDS011;36308;46.312;25.288;2023-08-24T04:43:18;10.52;;;7.80;;
50393;SDS011;36308;46.312;25.288;2023-08-24T04:45:54;11.70;;;7.75;;
50393;SDS011;36308;46.312;25.288;2023-08-24T04:48:20;16.17;;;8.60;;
50393;SDS011;36308;46.312;25.288;2023-08-24T04:50:47;12.85;;;7.53;;
50393;SDS011;36308;46.312;25.288;2023-08-24T04:53:14;11.15;;;7.80;;
50393;SDS011;36308;46.312;25.288;2023-08-24T04:55:42;17.50;;;8.23;;
50393;SDS011;36308;46.312;25.288;2023-08-24T04:58:08;9.15;;;7.40;;
50393;SDS011;36308;46.312;25.288;2023-08-24T05:00:34;12.80;;;7.65;;
50393;SDS011;36308;46.312;25.288;2023-08-24T05:03:01;9.32;;;7.80;;
50393;SDS011;36308;46.312;25.288;2023-08-24T05:05:31;13.55;;;8.55;;
50393;SDS011;36308;46.312;25.288;2023-08-24T05:07:57;12.15;;;8.82;;
50393;SDS011;36308;46.312;25.288;2023-08-24T05:10:24;11.80;;;8.40;;
50393;SDS011;36308;46.312;25.288;2023-08-24T05:12:49;10.05;;;7.28;;
50393;SDS011;36308;46.312;25.288;2023-08-24T05:15:15;12.57;;;8.55;;
50393;SDS011;36308;46.312;25.288;2023-08-24T05:17:41;11.73;;;7.45;;
50393;SDS011;36308;46.312;25.288;2023-08-24T05:20:06;14.32;;;7.80;;
50393;SDS011;36308;46.312;25.288;2023-08-24T05:22:33;12.98;;;8.27;;
50393;SDS011;36308;46.312;25.288;2023-08-24T05:24:59;20.73;;;10.15;;
50393;SDS011;36308;46.312;25.288;2023-08-24T05:27:25;21.38;;;14.02;;
50393;SDS011;36308;46.312;25.288;2023-08-24T05:29:50;16.23;;;11.30;;
50393;SDS011;36308;46.312;25.288;2023-08-24T05:32:16;17.67;;;9.10;;
50393;SDS011;36308;46.312;25.288;2023-08-24T05:34:41;12.95;;;8.60;;
50393;SDS011;36308;46.312;25.288;2023-08-24T05:37:07;13.85;;;7.93;;
50393;SDS011;36308;46.312;25.288;2023-08-24T05:39:32;13.55;;;7.50;;
50393;SDS011;36308;46.312;25.288;2023-08-24T05:41:58;16.17;;;8.50;;
50393;SDS011;36308;46.312;25.288;2023-08-24T05:44:23;14.80;;;8.63;;
50393;SDS011;36308;46.312;25.288;2023-08-24T05:46:49;14.48;;;8.57;;
50393;SDS011;36308;46.312;25.288;2023-08-24T05:49:14;10.50;;;8.00;;
50393;SDS011;36308;46.312;25.288;2023-08-24T05:51:40;13.60;;;8.10;;
50393;SDS011;36308;46.312;25.288;2023-08-24T05:54:06;12.73;;;7.90;;
50393;SDS011;36308;46.312;25.288;2023-08-24T05:56:32;42.65;;;11.02;;
50393;SDS011;36308;46.312;25.288;2023-08-24T05:58:57;64.70;;;13.32;;
50393;SDS011;36308;46.312;25.288;2023-08-24T06:01:23;18.85;;;9.05;;
50393;SDS011;36308;46.312;25.288;2023-08-24T06:03:49;12.60;;;5.43;;
50393;SDS011;36308;46.312;25.288;2023-08-24T06:06:15;13.75;;;5.80;;
50393;SDS011;36308;46.312;25.288;2023-08-24T06:08:41;18.38;;;7.78;;
50393;SDS011;36308;46.312;25.288;2023-08-24T06:11:07;17.40;;;8.50;;
50393;SDS011;36308;46.312;25.288;2023-08-24T06:13:32;17.38;;;8.40;;
50393;SDS011;36308;46.312;25.288;2023-08-24T06:15:58;15.52;;;8.63;;
50393;SDS011;36308;46.312;25.288;2023-08-24T06:18:23;12.27;;;8.07;;
50393;SDS011;36308;46.312;25.288;2023-08-24T06:20:49;15.00;;;8.45;;
50393;SDS011;36308;46.312;25.288;2023-08-24T06:23:16;16.40;;;9.07;;
50393;SDS011;36308;46.312;25.288;2023-08-24T06:25:44;16.45;;;8.13;;
50393;SDS011;36308;46.312;25.288;2023-08-24T06:28:11;18.05;;;8.32;;
50393;SDS011;36308;46.312;25.288;2023-08-24T06:30:41;15.60;;;8.40;;
50393;SDS011;36308;46.312;25.288;2023-08-24T06:33:08;12.63;;;7.30;;
50393;SDS011;36308;46.312;25.288;2023-08-24T06:35:36;13.77;;;6.88;;
50393;SDS011;36308;46.312;25.288;2023-08-24T06:38:02;10.05;;;7.45;;
50393;SDS011;36308;46.312;25.288;2023-08-24T06:40:28;10.40;;;6.50;;
50393;SDS011;36308;46.312;25.288;2023-08-24T06:42:55;9.00;;;6.63;;
50393;SDS011;36308;46.312;25.288;2023-08-24T06:45:21;7.40;;;5.63;;
50393;SDS011;36308;46.312;25.288;2023-08-24T06:47:46;10.30;;;6.28;;
50393;SDS011;36308;46.312;25.288;2023-08-24T06:50:12;9.70;;;6.43;;
50393;SDS011;36308;46.312;25.288;2023-08-24T06:52:37;8.63;;;6.20;;
50393;SDS011;36308;46.312;25.288;2023-08-24T06:55:03;8.73;;;5.93;;
50393;SDS011;36308;46.312;25.288;2023-08-24T06:57:30;10.32;;;5.95;;
50393;SDS011;36308;46.312;25.288;2023-08-24T06:59:55;8.40;;;6.28;;
50393;SDS011;36308;46.312;25.288;2023-08-24T07:02:21;8.27;;;6.53;;
50393;SDS011;36308;46.312;25.288;2023-08-24T07:04:47;7.95;;;5.78;;
50393;SDS011;36308;46.312;25.288;2023-08-24T07:07:13;8.65;;;6.32;;
50393;SDS011;36308;46.312;25.288;2023-08-24T07:09:38;8.38;;;6.03;;
50393;SDS011;36308;46.312;25.288;2023-08-24T07:12:04;8.38;;;5.80;;
50393;SDS011;36308;46.312;25.288;2023-08-24T07:14:32;8.88;;;5.82;;
50393;SDS011;36308;46.312;25.288;2023-08-24T07:16:58;9.13;;;6.30;;
50393;SDS011;36308;46.312;25.288;2023-08-24T07:19:24;8.02;;;6.22;;
50393;SDS011;36308;46.312;25.288;2023-08-24T07:21:50;7.25;;;6.03;;
50393;SDS011;36308;46.312;25.288;2023-08-24T07:24:16;9.15;;;6.32;;
50393;SDS011;36308;46.312;25.288;2023-08-24T07:26:44;8.60;;;6.07;;
50393;SDS011;36308;46.312;25.288;2023-08-24T07:29:10;8.00;;;6.03;;
50393;SDS011;36308;46.312;25.288;2023-08-24T07:31:36;12.23;;;6.20;;
50393;SDS011;36308;46.312;25.288;2023-08-24T07:34:02;12.80;;;6.82;;
50393;SDS011;36308;46.312;25.288;2023-08-24T07:36:28;8.35;;;5.95;;
50393;SDS011;36308;46.312;25.288;2023-08-24T07:38:55;10.20;;;6.28;;
50393;SDS011;36308;46.312;25.288;2023-08-24T07:41:21;6.95;;;5.43;;
50393;SDS011;36308;46.312;25.288;2023-08-24T07:43:46;9.00;;;6.35;;
50393;SDS011;36308;46.312;25.288;2023-08-24T07:46:12;8.57;;;5.72;;
50393;SDS011;36308;46.312;25.288;2023-08-24T07:48:37;8.32;;;6.07;;
50393;SDS011;36308;46.312;25.288;2023-08-24T07:51:03;8.25;;;6.10;;
50393;SDS011;36308;46.312;25.288;2023-08-24T07:53:28;6.82;;;5.70;;
50393;SDS011;36308;46.312;25.288;2023-08-24T07:55:54;9.40;;;6.05;;
50393;SDS011;36308;46.312;25.288;2023-08-24T07:58:23;9.75;;;6.65;;
50393;SDS011;36308;46.312;25.288;2023-08-24T08:00:49;11.18;;;7.00;;
50393;SDS011;36308;46.312;25.288;2023-08-24T08:03:17;9.50;;;6.45;;
50393;SDS011;36308;46.312;25.288;2023-08-24T08:05:43;8.05;;;5.40;;
50393;SDS011;36308;46.312;25.288;2023-08-24T08:08:08;10.75;;;5.72;;
50393;SDS011;36308;46.312;25.288;2023-08-24T08:10:34;6.18;;;5.38;;
50393;SDS011;36308;46.312;25.288;2023-08-24T08:12:59;6.85;;;5.50;;
50393;SDS011;36308;46.312;25.288;2023-08-24T08:15:25;7.68;;;5.65;;
50393;SDS011;36308;46.312;25.288;2023-08-24T08:17:50;6.60;;;5.88;;
50393;SDS011;36308;46.312;25.288;2023-08-24T08:20:16;15.60;;;6.20;;
50393;SDS011;36308;46.312;25.288;2023-08-24T08:22:42;8.82;;;6.10;;
50393;SDS011;36308;46.312;25.288;2023-08-24T08:25:07;11.32;;;5.72;;
50393;SDS011;36308;46.312;25.288;2023-08-24T08:27:33;8.18;;;5.68;;
50393;SDS011;36308;46.312;25.288;2023-08-24T08:29:59;7.82;;;5.90;;
50393;SDS011;36308;46.312;25.288;2023-08-24T08:32:24;6.82;;;5.32;;
50393;SDS011;36308;46.312;25.288;2023-08-24T08:34:53;6.25;;;5.60;;
50393;SDS011;36308;46.312;25.288;2023-08-24T08:37:26;9.57;;;5.35;;
50393;SDS011;36308;46.312;25.288;2023-08-24T08:39:51;7.45;;;5.25;;
50393;SDS011;36308;46.312;25.288;2023-08-24T08:42:17;7.95;;;5.53;;
50393;SDS011;36308;46.312;25.288;2023-08-24T08:44:43;7.45;;;5.47;;
50393;SDS011;36308;46.312;25.288;2023-08-24T08:47:13;8.75;;;5.50;;
50393;SDS011;36308;46.312;25.288;2023-08-24T08:49:39;7.10;;;5.40;;
50393;SDS011;36308;46.312;25.288;2023-08-24T08:52:08;8.02;;;5.53;;
50393;SDS011;36308;46.312;25.288;2023-08-24T08:54:35;6.30;;;5.18;;
50393;SDS011;36308;46.312;25.288;2023-08-24T08:57:01;7.10;;;5.30;;
50393;SDS011;36308;46.312;25.288;2023-08-24T08:59:30;6.72;;;5.10;;
50393;SDS011;36308;46.312;25.288;2023-08-24T09:02:00;6.30;;;5.07;;
50393;SDS011;36308;46.312;25.288;2023-08-24T09:04:27;6.40;;;5.10;;
50393;SDS011;36308;46.312;25.288;2023-08-24T09:06:55;7.82;;;6.22;;
50393;SDS011;36308;46.312;25.288;2023-08-24T09:09:26;9.18;;;5.80;;
50393;SDS011;36308;46.312;25.288;2023-08-24T09:11:52;8.18;;;5.70;;
50393;SDS011;36308;46.312;25.288;2023-08-24T09:14:18;7.07;;;5.85;;
50393;SDS011;36308;46.312;25.288;2023-08-24T09:16:44;9.95;;;6.22;;
50393;SDS011;36308;46.312;25.288;2023-08-24T09:19:12;7.35;;;5.15;;
50393;SDS011;36308;46.312;25.288;2023-08-24T09:21:38;8.55;;;6.20;;
50393;SDS011;36308;46.312;25.288;2023-08-24T09:24:05;7.78;;;6.00;;
50393;SDS011;36308;46.312;25.288;2023-08-24T09:26:33;10.10;;;5.50;;
50393;SDS011;36308;46.312;25.288;2023-08-24T09:29:00;6.85;;;5.63;;
50393;SDS011;36308;46.312;25.288;2023-08-24T09:31:36;6.82;;;5.97;;
50393;SDS011;36308;46.312;25.288;2023-08-24T09:34:02;9.10;;;5.28;;
50393;SDS011;36308;46.312;25.288;2023-08-24T09:36:34;8.20;;;5.60;;
50393;SDS011;36308;46.312;25.288;2023-08-24T09:39:02;6.57;;;5.90;;
50393;SDS011;36308;46.312;25.288;2023-08-24T09:44:09;6.03;;;5.40;;
50393;SDS011;36308;46.312;25.288;2023-08-24T09:46:35;6.88;;;5.57;;
50393;SDS011;36308;46.312;25.288;2023-08-24T09:49:05;5.95;;;5.35;;
50393;SDS011;36308;46.312;25.288;2023-08-24T09:51:31;6.90;;;5.88;;
50393;SDS011;36308;46.312;25.288;2023-08-24T09:53:58;6.28;;;5.47;;
50393;SDS011;36308;46.312;25.288;2023-08-24T09:56:31;8.65;;;5.63;;
50393;SDS011;36308;46.312;25.288;2023-08-24T10:01:47;8.05;;;6.82;;
50393;SDS011;36308;46.312;25.288;2023-08-24T10:04:28;6.95;;;6.10;;
50393;SDS011;36308;46.312;25.288;2023-08-24T10:06:55;6.25;;;5.63;;
50393;SDS011;36308;46.312;25.288;2023-08-24T10:09:31;8.70;;;5.90;;
50393;SDS011;36308;46.312;25.288;2023-08-24T10:12:04;7.75;;;5.82;;
50393;SDS011;36308;46.312;25.288;2023-08-24T10:14:32;6.95;;;5.80;;
50393;SDS011;36308;46.312;25.288;2023-08-24T10:17:09;7.82;;;5.85;;
50393;SDS011;36308;46.312;25.288;2023-08-24T10:19:36;8.82;;;6.13;;
50393;SDS011;36308;46.312;25.288;2023-08-24T10:22:03;7.47;;;6.00;;
50393;SDS011;36308;46.312;25.288;2023-08-24T10:24:29;6.70;;;6.00;;
50393;SDS011;36308;46.312;25.288;2023-08-24T10:26:56;8.02;;;5.65;;
50393;SDS011;36308;46.312;25.288;2023-08-24T10:29:24;7.30;;;6.22;;
50393;SDS011;36308;46.312;25.288;2023-08-24T10:31:51;10.40;;;6.35;;
50393;SDS011;36308;46.312;25.288;2023-08-24T10:34:17;7.85;;;6.68;;
50393;SDS011;36308;46.312;25.288;2023-08-24T10:36:42;8.18;;;6.45;;
50393;SDS011;36308;46.312;25.288;2023-08-24T10:39:08;8.32;;;6.40;;
50393;SDS011;36308;46.312;25.288;2023-08-24T10:41:46;7.25;;;6.13;;
50393;SDS011;36308;46.312;25.288;2023-08-24T10:44:19;8.05;;;6.07;;
50393;SDS011;36308;46.312;25.288;2023-08-24T10:54:50;7.78;;;6.03;;
50393;SDS011;36308;46.312;25.288;2023-08-24T10:57:18;8.73;;;6.22;;
50393;SDS011;36308;46.312;25.288;2023-08-24T11:02:40;7.32;;;6.57;;
50393;SDS011;36308;46.312;25.288;2023-08-24T11:05:19;8.77;;;6.60;;
50393;SDS011;36308;46.312;25.288;2023-08-24T11:07:56;9.85;;;6.93;;
50393;SDS011;36308;46.312;25.288;2023-08-24T11:11:09;7.35;;;6.55;;
50393;SDS011;36308;46.312;25.288;2023-08-24T11:13:17;7.85;;;6.88;;
50393;SDS011;36308;46.312;25.288;2023-08-24T11:15:48;7.57;;;6.45;;
50393;SDS011;36308;46.312;25.288;2023-08-24T11:18:23;7.22;;;6.30;;
50393;SDS011;36308;46.312;25.288;2023-08-24T11:20:51;9.18;;;6.80;;
50393;SDS011;36308;46.312;25.288;2023-08-24T11:23:18;9.18;;;6.97;;
50393;SDS011;36308;46.312;25.288;2023-08-24T11:25:45;8.35;;;6.47;;
50393;SDS011;36308;46.312;25.288;2023-08-24T11:28:16;8.18;;;7.03;;
50393;SDS011;36308;46.312;25.288;2023-08-24T11:30:42;7.25;;;6.32;;
50393;SDS011;36308;46.312;25.288;2023-08-24T11:33:08;19.67;;;9.70;;
50393;SDS011;36308;46.312;25.288;2023-08-24T11:35:36;7.70;;;6.68;;
50393;SDS011;36308;46.312;25.288;2023-08-24T11:38:02;9.43;;;6.88;;
50393;SDS011;36308;46.312;25.288;2023-08-24T11:40:29;10.00;;;6.45;;
50393;SDS011;36308;46.312;25.288;2023-08-24T11:42:57;10.88;;;7.28;;
50393;SDS011;36308;46.312;25.288;2023-08-24T11:45:23;9.85;;;6.78;;
50393;SDS011;36308;46.312;25.288;2023-08-24T11:47:49;7.97;;;6.50;;
50393;SDS011;36308;46.312;25.288;2023-08-24T11:50:16;7.90;;;7.10;;
50393;SDS011;36308;46.312;25.288;2023-08-24T11:52:42;7.70;;;6.90;;
50393;SDS011;36308;46.312;25.288;2023-08-24T11:55:08;28.48;;;22.60;;
50393;SDS011;36308;46.312;25.288;2023-08-24T11:57:35;16.23;;;14.55;;
50393;SDS011;36308;46.312;25.288;2023-08-24T12:00:04;28.15;;;24.63;;
50393;SDS011;36308;46.312;25.288;2023-08-24T12:02:33;19.35;;;17.25;;
50393;SDS011;36308;46.312;25.288;2023-08-24T12:04:59;10.63;;;8.38;;
50393;SDS011;36308;46.312;25.288;2023-08-24T12:07:25;8.38;;;7.57;;
50393;SDS011;36308;46.312;25.288;2023-08-24T12:09:52;8.00;;;7.30;;
50393;SDS011;36308;46.312;25.288;2023-08-24T12:12:19;6.90;;;6.25;;
50393;SDS011;36308;46.312;25.288;2023-08-24T12:14:46;8.30;;;6.72;;
50393;SDS011;36308;46.312;25.288;2023-08-24T12:17:13;8.35;;;7.25;;
50393;SDS011;36308;46.312;25.288;2023-08-24T12:19:43;8.38;;;7.28;;
50393;SDS011;36308;46.312;25.288;2023-08-24T12:22:16;8.75;;;7.28;;
50393;SDS011;36308;46.312;25.288;2023-08-24T12:24:45;7.57;;;6.85;;
50393;SDS011;36308;46.312;25.288;2023-08-24T12:27:17;8.07;;;6.97;;
50393;SDS011;36308;46.312;25.288;2023-08-24T12:29:45;9.80;;;7.10;;
50393;SDS011;36308;46.312;25.288;2023-08-24T12:32:11;8.77;;;6.95;;
50393;SDS011;36308;46.312;25.288;2023-08-24T12:34:37;8.23;;;6.65;;
50393;SDS011;36308;46.312;25.288;2023-08-24T12:37:06;11.82;;;6.78;;
50393;SDS011;36308;46.312;25.288;2023-08-24T12:39:34;9.40;;;6.88;;
50393;SDS011;36308;46.312;25.288;2023-08-24T12:42:01;8.07;;;6.63;;
50393;SDS011;36308;46.312;25.288;2023-08-24T12:44:27;6.93;;;5.60;;
50393;SDS011;36308;46.312;25.288;2023-08-24T12:46:53;7.85;;;5.97;;
50393;SDS011;36308;46.312;25.288;2023-08-24T12:49:18;10.07;;;5.80;;
50393;SDS011;36308;46.312;25.288;2023-08-24T12:51:44;7.15;;;6.32;;
50393;SDS011;36308;46.312;25.288;2023-08-24T12:54:09;10.23;;;5.63;;
50393;SDS011;36308;46.312;25.288;2023-08-24T12:56:35;11.52;;;6.60;;
50393;SDS011;36308;46.312;25.288;2023-08-24T12:59:01;9.30;;;7.88;;
50393;SDS011;36308;46.312;25.288;2023-08-24T13:01:26;7.15;;;6.43;;
50393;SDS011;36308;46.312;25.288;2023-08-24T13:03:52;8.13;;;6.50;;
50393;SDS011;36308;46.312;25.288;2023-08-24T13:06:18;7.85;;;6.07;;
50393;SDS011;36308;46.312;25.288;2023-08-24T13:08:43;9.57;;;6.57;;
50393;SDS011;36308;46.312;25.288;2023-08-24T13:11:09;8.38;;;6.85;;
50393;SDS011;36308;46.312;25.288;2023-08-24T13:13:36;7.93;;;6.45;;
50393;SDS011;36308;46.312;25.288;2023-08-24T13:16:02;7.28;;;6.53;;
50393;SDS011;36308;46.312;25.288;2023-08-24T13:18:27;8.35;;;6.40;;
50393;SDS011;36308;46.312;25.288;2023-08-24T13:20:53;7.85;;;5.60;;
50393;SDS011;36308;46.312;25.288;2023-08-24T13:23:18;7.80;;;5.93;;
50393;SDS011;36308;46.312;25.288;2023-08-24T13:25:44;6.47;;;5.78;;
50393;SDS011;36308;46.312;25.288;2023-08-24T13:28:09;7.32;;;5.63;;
50393;SDS011;36308;46.312;25.288;2023-08-24T13:30:35;8.63;;;7.18;;
50393;SDS011;36308;46.312;25.288;2023-08-24T13:33:01;8.27;;;6.13;;
50393;SDS011;36308;46.312;25.288;2023-08-24T13:35:26;7.18;;;5.78;;
50393;SDS011;36308;46.312;25.288;2023-08-24T13:37:52;6.57;;;5.85;;
50393;SDS011;36308;46.312;25.288;2023-08-24T13:40:17;8.18;;;5.70;;
50393;SDS011;36308;46.312;25.288;2023-08-24T13:42:44;6.72;;;6.03;;
50393;SDS011;36308;46.312;25.288;2023-08-24T13:45:09;11.13;;;7.93;;
50393;SDS011;36308;46.312;25.288;2023-08-24T13:47:35;7.38;;;6.10;;
50393;SDS011;36308;46.312;25.288;2023-08-24T13:50:00;6.53;;;5.82;;
50393;SDS011;36308;46.312;25.288;2023-08-24T13:52:27;8.98;;;6.38;;
50393;SDS011;36308;46.312;25.288;2023-08-24T13:54:53;8.82;;;6.53;;
50393;SDS011;36308;46.312;25.288;2023-08-24T13:57:18;8.38;;;6.45;;
50393;SDS011;36308;46.312;25.288;2023-08-24T13:59:44;6.70;;;6.00;;
50393;SDS011;36308;46.312;25.288;2023-08-24T14:02:09;7.07;;;6.18;;
50393;SDS011;36308;46.312;25.288;2023-08-24T14:04:37;6.65;;;5.97;;
50393;SDS011;36308;46.312;25.288;2023-08-24T14:07:03;6.68;;;5.60;;
50393;SDS011;36308;46.312;25.288;2023-08-24T14:09:28;8.27;;;6.15;;
50393;SDS011;36308;46.312;25.288;2023-08-24T14:11:54;6.38;;;5.63;;
50393;SDS011;36308;46.312;25.288;2023-08-24T14:14:19;6.97;;;6.05;;
50393;SDS011;36308;46.312;25.288;2023-08-24T14:16:45;8.50;;;5.75;;
50393;SDS011;36308;46.312;25.288;2023-08-24T14:19:11;8.23;;;6.10;;
50393;SDS011;36308;46.312;25.288;2023-08-24T14:21:37;10.13;;;6.28;;
50393;SDS011;36308;46.312;25.288;2023-08-24T14:24:02;10.60;;;6.45;;
50393;SDS011;36308;46.312;25.288;2023-08-24T14:26:28;8.38;;;6.75;;
50393;SDS011;36308;46.312;25.288;2023-08-24T14:28:54;8.80;;;6.25;;
50393;SDS011;36308;46.312;25.288;2023-08-24T14:31:25;7.28;;;6.20;;
50393;SDS011;36308;46.312;25.288;2023-08-24T14:33:52;7.22;;;5.97;;
50393;SDS011;36308;46.312;25.288;2023-08-24T14:36:22;7.60;;;5.93;;
50393;SDS011;36308;46.312;25.288;2023-08-24T14:38:49;8.32;;;6.18;;
50393;SDS011;36308;46.312;25.288;2023-08-24T14:41:17;8.57;;;6.22;;
50393;SDS011;36308;46.312;25.288;2023-08-24T14:43:42;7.45;;;6.30;;
50393;SDS011;36308;46.312;25.288;2023-08-24T14:46:08;8.80;;;6.03;;
50393;SDS011;36308;46.312;25.288;2023-08-24T14:48:34;8.02;;;6.35;;
50393;SDS011;36308;46.312;25.288;2023-08-24T14:51:00;8.90;;;5.80;;